Time;durP1;ratioP1;P1;durP2;ratioP2;P2;SDS_P1;SDS_P2;PMS_P1;PMS_P2;Temp;Humidity;BMP_temperature;BMP_pressure;BME280_temperature;BME280_humidity;BME280_pressure;Samples;Min_cycle;Max_cycle;Signal;HPM_P1;HPM_P2
2023/04/15 00:00:15;;;;;;;8.57;4.07;;;;;;;13.05;100.00;99197.50;5090789;28;20066;-73
2023/04/15 00:02:41;;;;;;;6.97;3.53;;;;;;;13.02;100.00;99159.38;5093801;28;20122;-73
2023/04/15 00:05:07;;;;;;;10.45;3.88;;;;;;;12.87;100.00;99113.41;5093419;28;20028;-73
2023/04/15 00:07:33;;;;;;;8.68;3.50;;;;;;;12.63;100.00;99078.94;5092765;28;20028;-74
2023/04/15 00:09:58;;;;;;;7.93;3.72;;;;;;;13.12;100.00;99077.25;5093310;28;20498;-74
2023/04/15 00:12:25;;;;;;;9.07;3.45;;;;;;;12.41;100.00;98933.09;5093647;28;20042;-74
2023/04/15 00:14:51;;;;;;;7.03;4.30;;;;;;;12.60;100.00;98932.03;5094102;28;20035;-74
2023/04/15 00:17:16;;;;;;;8.10;3.75;;;;;;;12.75;100.00;98926.16;5092912;28;20111;-74
2023/04/15 00:19:43;;;;;;;8.15;4.20;;;;;;;12.49;100.00;98948.81;5094672;28;20040;-74
2023/04/15 00:22:09;;;;;;;9.25;3.78;;;;;;;12.68;100.00;98985.19;5094710;28;20053;-75
2023/04/15 00:24:34;;;;;;;11.40;4.45;;;;;;;12.72;100.00;98923.75;5092911;28;20036;-74
2023/04/15 00:27:00;;;;;;;8.07;4.07;;;;;;;12.63;100.00;98809.50;5092999;28;20051;-73
2023/04/15 00:29:25;;;;;;;12.60;4.70;;;;;;;12.48;100.00;98756.81;5092830;28;20113;-74
2023/04/15 00:31:51;;;;;;;6.82;3.25;;;;;;;12.80;100.00;98799.19;5103853;28;20035;-72
2023/04/15 00:34:20;;;;;;;10.23;3.83;;;;;;;12.82;100.00;98735.34;5114809;28;20031;-74
2023/04/15 00:36:46;;;;;;;7.57;4.00;;;;;;;12.98;100.00;98713.13;5113604;28;20088;-74
2023/04/15 00:39:12;;;;;;;9.40;3.80;;;;;;;12.55;100.00;98584.78;5113339;28;20118;-73
2023/04/15 00:41:38;;;;;;;7.93;3.60;;;;;;;12.72;100.00;98576.94;5113707;28;20087;-74
2023/04/15 00:44:05;;;;;;;7.47;3.38;;;;;;;12.82;100.00;98538.97;5112926;28;20035;-73
2023/04/15 00:46:34;;;;;;;7.20;3.22;;;;;;;13.01;100.00;98491.03;5113107;28;20048;-75
2023/04/15 00:48:59;;;;;;;8.48;3.10;;;;;;;12.53;100.00;98415.00;5113138;28;20027;-74
2023/04/15 00:51:25;;;;;;;6.57;3.30;;;;;;;12.53;100.00;98410.72;5113539;27;20038;-75
2023/04/15 00:53:51;;;;;;;9.70;4.05;;;;;;;12.86;100.00;98433.31;5116999;27;20057;-74
2023/04/15 00:56:16;;;;;;;8.18;3.80;;;;;;;12.89;100.00;98410.19;5134957;27;20031;-75
2023/04/15 00:58:42;;;;;;;6.60;3.00;;;;;;;12.91;100.00;98367.53;5134502;27;20043;-74
2023/04/15 01:01:07;;;;;;;6.45;3.63;;;;;;;12.33;100.00;98328.75;5116522;27;20412;-75
2023/04/15 01:03:33;;;;;;;5.82;3.22;;;;;;;12.78;100.00;98336.88;5134371;27;20035;-74
2023/04/15 01:05:59;;;;;;;8.80;3.50;;;;;;;12.84;100.00;98311.00;5116141;27;20121;-74
2023/04/15 01:08:29;;;;;;;7.28;3.97;;;;;;;12.78;100.00;98280.78;5116256;27;20327;-74
2023/04/15 01:10:57;;;;;;;10.10;3.80;;;;;;;12.72;100.00;98239.56;5115842;27;20023;-75
2023/04/15 01:13:23;;;;;;;7.20;3.97;;;;;;;12.83;100.00;98220.13;5116006;27;20023;-74
2023/04/15 01:15:50;;;;;;;7.40;3.50;;;;;;;12.37;100.00;98149.28;5134275;27;20111;-74
2023/04/15 01:18:16;;;;;;;7.80;3.33;;;;;;;12.77;100.00;98166.97;5134555;27;20027;-74
2023/04/15 01:20:42;;;;;;;6.25;3.30;;;;;;;12.61;100.00;98174.00;5115626;27;20523;-74
2023/04/15 01:23:07;;;;;;;7.97;3.17;;;;;;;12.53;100.00;98163.47;5133679;27;20099;-75
2023/04/15 01:25:33;;;;;;;8.00;3.67;;;;;;;12.23;100.00;98100.94;5115970;27;20023;-74
2023/04/15 01:27:59;;;;;;;11.65;3.67;;;;;;;12.64;100.00;98096.47;5134357;27;20027;-75
2023/04/15 01:30:25;;;;;;;7.22;3.17;;;;;;;12.78;100.00;98104.03;5134164;27;20058;-74
2023/04/15 01:32:51;;;;;;;6.03;3.35;;;;;;;12.88;100.00;98070.16;5115619;27;20039;-74
2023/04/15 01:35:17;;;;;;;9.82;3.70;;;;;;;12.34;100.00;98010.16;5115662;27;20064;-74
2023/04/15 01:37:43;;;;;;;9.98;3.85;;;;;;;12.43;100.00;97995.97;5134078;27;20117;-73
2023/04/15 01:40:09;;;;;;;7.82;4.30;;;;;;;12.08;100.00;97888.84;5115269;27;20566;-74
2023/04/15 01:42:35;;;;;;;6.90;4.25;;;;;;;12.23;100.00;97961.66;5115016;27;20133;-72
2023/04/15 01:45:01;;;;;;;8.18;4.15;;;;;;;12.33;100.00;97901.53;5115351;27;20350;-74
2023/04/15 01:47:27;;;;;;;10.52;4.65;;;;;;;12.42;100.00;97832.09;5115528;27;20054;-75
2023/04/15 01:49:55;;;;;;;5.88;3.90;;;;;;;12.28;100.00;97818.69;5133787;27;20038;-74
2023/04/15 01:52:21;;;;;;;7.68;4.35;;;;;;;12.28;100.00;97772.84;5114786;27;20059;-74
2023/04/15 01:54:46;;;;;;;9.88;4.20;;;;;;;11.92;100.00;97687.91;5133440;27;20174;-74
2023/04/15 01:57:12;;;;;;;8.23;4.57;;;;;;;12.18;100.00;97757.41;5132637;27;20062;-74
2023/04/15 01:59:37;;;;;;;7.45;4.53;;;;;;;12.11;100.00;97662.78;5133175;27;20023;-74
2023/04/15 02:02:04;;;;;;;7.57;4.00;;;;;;;12.22;100.00;97724.88;5114482;27;20130;-74
2023/04/15 02:04:29;;;;;;;10.77;4.70;;;;;;;12.47;100.00;97722.19;5133179;27;20027;-74
2023/04/15 02:06:55;;;;;;;9.40;4.03;;;;;;;12.07;100.00;97689.38;5133518;27;20190;-74
2023/04/15 02:09:21;;;;;;;10.38;4.70;;;;;;;12.34;100.00;97752.03;5114943;27;20432;-75
2023/04/15 02:11:46;;;;;;;8.98;4.75;;;;;;;11.95;100.00;97679.25;5133095;27;20525;-73
2023/04/15 02:14:12;;;;;;;7.15;4.78;;;;;;;11.94;100.00;97703.88;5115189;27;20024;-74
2023/04/15 02:16:37;;;;;;;13.73;5.22;;;;;;;12.00;100.00;97809.59;5133317;27;20031;-74
2023/04/15 02:19:04;;;;;;;10.15;5.22;;;;;;;12.39;100.00;97872.25;5133052;27;20054;-74
2023/04/15 02:21:30;;;;;;;11.82;5.38;;;;;;;12.46;100.00;97901.50;5114822;27;20031;-74
2023/04/15 02:23:56;;;;;;;8.68;4.95;;;;;;;12.49;100.00;97881.72;5114084;27;20087;-74
2023/04/15 02:26:21;;;;;;;7.95;4.95;;;;;;;12.54;100.00;97922.97;5114728;27;20557;-73
2023/04/15 02:28:47;;;;;;;11.18;5.30;;;;;;;12.34;100.00;97960.94;5132753;27;20035;-74
2023/04/15 02:31:13;;;;;;;10.82;5.72;;;;;;;12.06;100.00;97947.50;5141253;27;20030;-74
2023/04/15 02:33:38;;;;;;;8.55;5.10;;;;;;;12.00;100.00;97986.09;5135194;27;20067;-73
2023/04/15 02:36:05;;;;;;;12.02;5.25;;;;;;;12.53;100.00;98053.06;5134813;27;20524;-73
2023/04/15 02:38:30;;;;;;;13.35;6.22;;;;;;;12.32;100.00;98008.63;5134782;27;20061;-75
2023/04/15 02:40:56;;;;;;;13.00;4.95;;;;;;;12.24;100.00;98009.13;5135178;27;20062;-74
2023/04/15 02:43:22;;;;;;;12.45;5.55;;;;;;;12.51;100.00;98105.88;5126484;27;20031;-74
2023/04/15 02:45:47;;;;;;;10.82;5.40;;;;;;;12.47;100.00;98100.16;5112999;27;20038;-73
2023/04/15 02:48:13;;;;;;;10.15;5.30;;;;;;;12.15;100.00;98056.41;5132111;27;20030;-73
2023/04/15 02:50:39;;;;;;;11.27;5.38;;;;;;;12.05;100.00;98072.38;5132866;27;20034;-73
2023/04/15 02:53:06;;;;;;;11.88;5.63;;;;;;;12.36;100.00;98134.91;5110367;28;20059;-74
2023/04/15 02:55:32;;;;;;;10.35;4.97;;;;;;;12.51;100.00;98156.84;5110988;28;20032;-74
2023/04/15 02:57:59;;;;;;;9.48;5.80;;;;;;;12.35;100.00;98159.56;5110543;28;20034;-73
2023/04/15 03:00:25;;;;;;;8.88;5.70;;;;;;;12.17;100.00;98192.13;5108408;28;20076;-74
2023/04/15 03:02:55;;;;;;;11.20;5.20;;;;;;;11.98;100.00;98162.84;5110587;28;20493;-73
2023/04/15 03:05:24;;;;;;;9.20;5.20;;;;;;;12.01;100.00;98196.56;5111165;28;20020;-73
2023/04/15 03:07:50;;;;;;;9.32;5.43;;;;;;;11.64;100.00;98168.34;5110626;28;20054;-74
2023/04/15 03:10:15;;;;;;;11.80;5.60;;;;;;;11.70;100.00;98191.72;5110762;28;20031;-73
2023/04/15 03:12:41;;;;;;;9.48;5.95;;;;;;;12.03;100.00;98280.50;5111105;28;20127;-74
2023/04/15 03:15:07;;;;;;;12.15;6.03;;;;;;;11.82;100.00;98251.25;5112036;28;20148;-74
2023/04/15 03:17:33;;;;;;;8.18;5.47;;;;;;;12.24;100.00;98296.19;5110637;28;20027;-74
2023/04/15 03:19:58;;;;;;;16.75;6.70;;;;;;;11.80;100.00;98251.34;5110895;28;20124;-74
2023/04/15 03:22:25;;;;;;;11.60;6.30;;;;;;;11.94;100.00;98274.22;5122720;28;20087;-73
2023/04/15 03:24:50;;;;;;;14.07;6.20;;;;;;;12.28;100.00;98328.22;5131943;27;20055;-74
2023/04/15 03:27:16;;;;;;;12.05;6.80;;;;;;;12.24;100.00;98342.84;5097702;28;20089;-74
2023/04/15 03:29:41;;;;;;;12.55;7.00;;;;;;;11.95;100.00;98291.16;5091249;28;20028;-74
2023/04/15 03:32:07;;;;;;;9.68;6.47;;;;;;;11.78;100.00;98304.09;5091118;28;20039;-74
2023/04/15 03:34:32;;;;;;;10.57;6.20;;;;;;;12.03;100.00;98383.19;5090075;28;20104;-74
2023/04/15 03:36:57;;;;;;;19.80;12.15;;;;;;;11.96;100.00;98379.34;5094710;28;20040;-74
2023/04/15 03:39:23;;;;;;;27.40;21.02;;;;;;;12.19;100.00;98445.06;5095213;28;20107;-74
2023/04/15 03:41:48;;;;;;;23.63;16.10;;;;;;;12.34;100.00;98460.34;5093509;28;20032;-73
2023/04/15 03:44:14;;;;;;;28.35;21.25;;;;;;;12.37;100.00;98460.16;5094237;28;20074;-74
2023/04/15 03:46:40;;;;;;;16.80;9.70;;;;;;;12.39;100.00;98482.09;5094534;28;20137;-75
2023/04/15 03:49:08;;;;;;;13.23;6.80;;;;;;;12.21;100.00;98483.16;5093501;28;20094;-75
2023/04/15 03:51:34;;;;;;;16.55;6.80;;;;;;;11.92;100.00;98439.00;5093256;28;20024;-74
2023/04/15 03:54:00;;;;;;;11.13;7.03;;;;;;;11.56;100.00;98394.47;5093698;28;20139;-74
2023/04/15 03:56:26;;;;;;;13.65;8.25;;;;;;;12.18;100.00;98506.28;5128198;27;20032;-75
2023/04/15 03:58:51;;;;;;;12.45;7.72;;;;;;;12.11;100.00;98505.81;5123179;27;20042;-74
2023/04/15 04:01:18;;;;;;;13.32;7.20;;;;;;;12.35;100.00;98512.94;5135634;27;20023;-74
2023/04/15 04:03:44;;;;;;;12.77;7.28;;;;;;;12.26;100.00;98490.56;5114502;27;20046;-73
2023/04/15 04:06:11;;;;;;;11.13;7.15;;;;;;;12.35;100.00;98521.41;5114429;28;20032;-75
2023/04/15 04:08:37;;;;;;;11.95;7.38;;;;;;;12.43;100.00;98526.88;5115485;28;20508;-74
2023/04/15 04:11:02;;;;;;;10.18;6.95;;;;;;;12.15;100.00;98468.25;5147476;27;20035;-74
2023/04/15 04:13:28;;;;;;;14.38;7.53;;;;;;;12.43;100.00;98518.41;5147700;27;20072;-74
2023/04/15 04:15:53;;;;;;;11.48;7.72;;;;;;;11.84;100.00;98481.13;5115177;28;20024;-74
2023/04/15 04:18:19;;;;;;;13.55;7.65;;;;;;;12.19;100.00;98548.69;5115641;28;20051;-75
2023/04/15 04:20:45;;;;;;;10.52;7.88;;;;;;;12.30;100.00;98550.63;5148728;27;20050;-75
2023/04/15 04:23:10;;;;;;;12.95;7.03;;;;;;;12.32;100.00;98529.22;5148176;27;20032;-75
2023/04/15 04:25:36;;;;;;;10.73;6.88;;;;;;;12.28;100.00;98593.19;5113369;28;20027;-74
2023/04/15 04:28:02;;;;;;;13.82;7.50;;;;;;;12.20;100.00;98570.72;5114473;28;20035;-74
2023/04/15 04:30:27;;;;;;;11.70;7.18;;;;;;;12.31;100.00;98646.53;5115221;27;20034;-76
2023/04/15 04:32:54;;;;;;;13.48;8.18;;;;;;;12.53;100.00;98649.50;5113762;28;20218;-75
2023/04/15 04:35:19;;;;;;;30.70;24.80;;;;;;;12.66;100.00;98632.56;5112886;28;20027;-73
2023/04/15 04:37:45;;;;;;;21.65;14.88;;;;;;;12.38;100.00;98579.81;5112140;28;20092;-75
2023/04/15 04:40:11;;;;;;;12.45;7.53;;;;;;;11.94;100.00;98567.06;5128694;27;20038;-76
2023/04/15 04:42:36;;;;;;;11.63;7.45;;;;;;;11.72;100.00;98490.28;5132875;27;20038;-77
2023/04/15 04:45:02;;;;;;;13.23;7.70;;;;;;;12.46;100.00;98620.19;5134710;27;20027;-77
2023/04/15 04:47:27;;;;;;;45.35;31.55;;;;;;;12.40;100.00;98626.44;5132771;27;20039;-74
2023/04/15 04:49:52;;;;;;;14.77;7.80;;;;;;;12.50;100.00;98609.69;5133141;27;20031;-76
2023/04/15 04:52:18;;;;;;;20.63;11.40;;;;;;;12.05;100.00;98546.91;5133374;27;20192;-75
2023/04/15 04:54:43;;;;;;;12.75;8.20;;;;;;;12.26;100.00;98600.09;5134586;27;20069;-77
2023/04/15 04:57:09;;;;;;;11.90;7.65;;;;;;;11.85;100.00;98526.84;5134734;27;20066;-75
2023/04/15 04:59:34;;;;;;;15.93;10.88;;;;;;;12.08;100.00;98568.88;5133994;27;20038;-75
2023/04/15 05:02:02;;;;;;;44.53;32.63;;;;;;;12.48;100.00;98638.75;5111144;27;20028;-78
2023/04/15 05:04:27;;;;;;;23.40;19.40;;;;;;;12.62;100.00;98651.50;5093778;28;20039;-75
2023/04/15 05:06:53;;;;;;;36.35;32.25;;;;;;;12.81;100.00;98667.41;5093342;28;20036;-76
2023/04/15 05:09:18;;;;;;;39.45;30.88;;;;;;;12.79;100.00;98671.78;5126340;27;20024;-75
2023/04/15 05:11:43;;;;;;;38.90;30.35;;;;;;;12.48;100.00;98618.38;5092142;28;20032;-75
2023/04/15 05:14:09;;;;;;;17.85;13.10;;;;;;;12.09;100.00;98588.31;5093547;28;20097;-75
2023/04/15 05:16:34;;;;;;;19.10;13.20;;;;;;;12.55;100.00;98633.22;5092096;28;20032;-76
2023/04/15 05:19:00;;;;;;;18.98;12.80;;;;;;;12.85;100.00;98702.84;5092510;28;20063;-76
2023/04/15 05:21:26;;;;;;;20.65;14.43;;;;;;;12.92;100.00;98691.38;5126402;27;20059;-75
2023/04/15 05:23:52;;;;;;;16.02;10.80;;;;;;;12.97;100.00;98696.22;5093178;28;20115;-75
2023/04/15 05:26:17;;;;;;;15.00;10.15;;;;;;;12.79;100.00;98676.88;5109067;28;20028;-75
2023/04/15 05:28:42;;;;;;;13.68;9.75;;;;;;;12.93;100.00;98669.25;5093059;28;20039;-76
2023/04/15 05:31:08;;;;;;;16.58;9.88;;;;;;;12.63;100.00;98609.81;5109091;28;20031;-76
2023/04/15 05:33:33;;;;;;;13.88;11.00;;;;;;;12.83;100.00;98620.50;5108928;28;20410;-76
2023/04/15 05:35:59;;;;;;;14.20;10.50;;;;;;;12.88;100.00;98695.00;5092818;28;20039;-76
2023/04/15 05:38:24;;;;;;;79.90;68.22;;;;;;;13.20;100.00;98698.25;5112079;28;20027;-76
2023/04/15 05:40:50;;;;;;;27.13;17.88;;;;;;;13.23;100.00;98676.84;5113296;28;20032;-76
2023/04/15 05:43:16;;;;;;;23.30;19.52;;;;;;;13.04;100.00;98698.34;5114707;27;20490;-77
2023/04/15 05:45:44;;;;;;;17.38;9.75;;;;;;;12.70;100.00;98654.44;5107321;28;20039;-77
2023/04/15 05:48:10;;;;;;;12.95;9.40;;;;;;;13.17;100.00;98723.97;5146713;27;20028;-75
2023/04/15 05:50:35;;;;;;;13.35;10.20;;;;;;;12.94;100.00;98724.44;5117177;27;20043;-76
2023/04/15 05:53:01;;;;;;;15.25;10.30;;;;;;;12.98;100.00;98718.25;5124899;27;20063;-76
2023/04/15 05:55:26;;;;;;;17.95;10.93;;;;;;;13.01;100.00;98707.88;5142309;27;20050;-75
2023/04/15 05:57:51;;;;;;;14.60;11.02;;;;;;;12.92;100.00;98718.59;5098336;28;20031;-76
2023/04/15 06:00:17;;;;;;;18.17;10.10;;;;;;;13.19;100.00;98711.94;5111411;27;20034;-77
2023/04/15 06:02:42;;;;;;;16.00;11.48;;;;;;;12.90;100.00;98654.94;5114895;27;20031;-79
2023/04/15 06:05:10;;;;;;;14.93;10.27;;;;;;;13.29;100.00;98712.22;5114925;27;20118;-74
2023/04/15 06:07:36;;;;;;;13.68;9.68;;;;;;;12.95;100.00;98657.22;5129820;27;20322;-77
2023/04/15 06:10:03;;;;;;;14.43;9.57;;;;;;;13.03;100.00;98660.13;5132729;27;20090;-78
2023/04/15 06:12:28;;;;;;;14.27;9.93;;;;;;;12.79;100.00;98656.47;5132704;27;20027;-78
2023/04/15 06:14:54;;;;;;;19.00;13.52;;;;;;;13.15;100.00;98736.00;5112866;27;20070;-76
2023/04/15 06:17:19;;;;;;;16.63;11.02;;;;;;;13.20;100.00;98721.22;5105885;27;20061;-76
2023/04/15 06:19:45;;;;;;;15.88;12.20;;;;;;;13.25;100.00;98647.75;5114639;27;20118;-76
2023/04/15 06:22:11;;;;;;;16.45;11.65;;;;;;;12.96;100.00;98674.97;5114011;27;20071;-77
2023/04/15 06:24:36;;;;;;;23.73;15.80;;;;;;;13.38;100.00;98726.97;5112930;27;20110;-77
2023/04/15 06:27:02;;;;;;;20.98;13.93;;;;;;;12.86;100.00;98691.72;5129161;27;20410;-77
2023/04/15 06:29:28;;;;;;;18.35;13.35;;;;;;;12.52;100.00;98635.13;5113862;27;20091;-77
2023/04/15 06:31:55;;;;;;;19.65;14.02;;;;;;;13.06;100.00;98695.69;5113952;27;20034;-75
2023/04/15 06:34:20;;;;;;;20.60;13.75;;;;;;;13.42;100.00;98767.53;5114681;27;20065;-75
2023/04/15 06:36:46;;;;;;;26.52;17.38;;;;;;;13.66;100.00;98750.78;5113991;27;20032;-73
2023/04/15 06:39:11;;;;;;;38.25;28.48;;;;;;;13.48;100.00;98758.69;5138372;27;20056;-74
2023/04/15 06:41:37;;;;;;;41.63;27.42;;;;;;;13.42;100.00;98701.16;5117280;27;20591;-72
2023/04/15 06:44:02;;;;;;;17.40;11.32;;;;;;;13.85;100.00;98760.69;5136230;27;20043;-76
2023/04/15 06:46:28;;;;;;;18.70;11.02;;;;;;;13.80;100.00;98758.44;5130686;27;20027;-77
2023/04/15 06:48:53;;;;;;;16.58;9.90;;;;;;;13.79;100.00;98764.44;5113814;27;20035;-77
2023/04/15 06:51:18;;;;;;;23.00;14.18;;;;;;;13.54;100.00;98773.66;5133745;27;20062;-76
2023/04/15 06:53:44;;;;;;;15.27;11.13;;;;;;;13.60;100.00;98779.22;5140177;27;20473;-74
2023/04/15 06:56:09;;;;;;;28.38;14.93;;;;;;;13.92;100.00;98775.53;5114161;28;20118;-78
2023/04/15 06:58:35;;;;;;;28.88;17.70;;;;;;;13.86;100.00;98768.25;5132904;27;20113;-77
2023/04/15 07:01:01;;;;;;;10.93;6.68;;;;;;;13.61;100.00;98770.63;5134302;27;20149;-76
2023/04/15 07:03:26;;;;;;;20.30;9.82;;;;;;;14.17;100.00;98782.53;5151551;27;20039;-76
2023/04/15 07:05:52;;;;;;;13.05;8.18;;;;;;;13.91;100.00;98770.53;5131640;27;20022;-78
2023/04/15 07:08:19;;;;;;;9.68;6.70;;;;;;;13.68;100.00;98774.50;5112774;28;20583;-76
2023/04/15 07:10:46;;;;;;;10.82;6.60;;;;;;;13.81;100.00;98788.16;5115592;27;20524;-76
2023/04/15 07:13:11;;;;;;;12.00;7.72;;;;;;;14.08;100.00;98770.34;5136801;27;20088;-75
2023/04/15 07:15:37;;;;;;;10.07;7.18;;;;;;;13.73;100.00;98683.06;5117763;27;20489;-74
2023/04/15 07:18:02;;;;;;;12.95;7.50;;;;;;;13.85;100.00;98677.22;5118262;27;20031;-74
2023/04/15 07:20:28;;;;;;;10.40;6.78;;;;;;;14.22;100.00;98741.34;5117644;27;20023;-75
2023/04/15 07:22:53;;;;;;;10.77;6.47;;;;;;;14.54;100.00;98768.28;5117703;27;20407;-73
2023/04/15 07:25:19;;;;;;;16.13;7.55;;;;;;;14.86;100.00;98759.38;5117970;27;20030;-79
2023/04/15 07:27:45;;;;;;;9.40;6.28;;;;;;;14.57;100.00;98763.81;5135543;27;20040;-75
2023/04/15 07:30:11;;;;;;;12.75;6.97;;;;;;;14.54;100.00;98701.78;5135589;27;20038;-71
2023/04/15 07:32:37;;;;;;;9.40;6.00;;;;;;;14.03;100.00;98717.84;5136064;27;20074;-74
2023/04/15 07:35:02;;;;;;;9.75;5.00;;;;;;;14.30;100.00;98786.00;5117675;27;20065;-73
2023/04/15 07:37:28;;;;;;;12.90;5.97;;;;;;;14.32;100.00;98743.25;5116717;27;20102;-74
2023/04/15 07:39:54;;;;;;;10.80;6.45;;;;;;;14.35;100.00;98753.31;5135678;27;20114;-72
2023/04/15 07:42:20;;;;;;;10.52;5.88;;;;;;;14.91;100.00;98788.06;5115272;27;20122;-73
2023/04/15 07:44:45;;;;;;;8.57;6.00;;;;;;;14.54;100.00;98787.00;5117129;27;20081;-71
2023/04/15 07:47:11;;;;;;;8.65;5.65;;;;;;;14.86;100.00;98784.97;5116033;27;20153;-73
2023/04/15 07:49:37;;;;;;;9.98;5.70;;;;;;;14.82;100.00;98780.13;5135098;27;20019;-73
2023/04/15 07:52:02;;;;;;;10.00;6.05;;;;;;;14.89;100.00;98769.41;5116702;27;20055;-75
2023/04/15 07:54:28;;;;;;;9.15;6.10;;;;;;;14.99;100.00;98775.59;5134781;27;20385;-74
2023/04/15 07:56:53;;;;;;;13.63;5.75;;;;;;;15.61;100.00;98738.94;5133976;27;20507;-75
2023/04/15 07:59:19;;;;;;;7.55;5.30;;;;;;;16.54;100.00;98714.44;5135099;27;20106;-75
2023/04/15 08:01:45;;;;;;;8.95;5.97;;;;;;;16.16;100.00;98688.97;5101464;27;20033;-76
2023/04/15 08:04:10;;;;;;;8.95;6.13;;;;;;;16.87;100.00;98715.38;5146451;27;20026;-75
2023/04/15 08:06:38;;;;;;;11.95;7.10;;;;;;;17.04;100.00;98726.94;5116949;27;20417;-75
2023/04/15 08:09:04;;;;;;;23.98;20.10;;;;;;;17.05;100.00;98664.38;5116847;27;20055;-74
2023/04/15 08:11:30;;;;;;;9.45;6.80;;;;;;;17.62;100.00;98703.66;5116381;27;20134;-74
2023/04/15 08:13:55;;;;;;;10.52;6.32;;;;;;;16.68;100.00;98750.19;5116457;27;20049;-73
2023/04/15 08:16:23;;;;;;;13.95;8.75;;;;;;;16.32;100.00;98741.59;5134135;27;20035;-73
2023/04/15 08:18:50;;;;;;;9.20;4.47;;;;;;;15.70;100.00;98823.78;5115617;27;20031;-74
2023/04/15 08:21:17;;;;;;;10.73;4.93;;;;;;;16.35;100.00;98745.69;5115394;27;20080;-75
2023/04/15 08:23:43;;;;;;;5.82;3.78;;;;;;;17.20;100.00;98756.50;5115865;27;20473;-73
2023/04/15 08:26:09;;;;;;;5.80;4.07;;;;;;;17.33;100.00;98775.19;5134245;27;20031;-73
2023/04/15 08:28:36;;;;;;;8.23;4.50;;;;;;;16.73;100.00;98738.66;5115829;27;20026;-73
2023/04/15 08:31:02;;;;;;;9.02;5.38;;;;;;;17.92;100.00;98767.31;5116022;27;20035;-73
2023/04/15 08:33:27;;;;;;;9.45;6.28;;;;;;;18.35;100.00;98767.34;5134934;27;20031;-74
2023/04/15 08:35:53;;;;;;;7.38;4.78;;;;;;;18.87;100.00;98713.31;5116782;27;20066;-74
2023/04/15 08:38:18;;;;;;;6.63;4.78;;;;;;;18.33;100.00;98793.19;5115853;27;20508;-74
2023/04/15 08:40:45;;;;;;;5.95;4.07;;;;;;;18.21;100.00;98740.13;5115674;27;20066;-74
2023/04/15 08:43:25;;;;;;;7.13;4.30;;;;;;;18.04;100.00;98764.59;5134336;27;20034;-71
2023/04/15 08:45:52;;;;;;;6.45;4.45;;;;;;;18.30;100.00;98833.81;5116543;27;20038;-73
2023/04/15 08:48:18;;;;;;;10.00;5.18;;;;;;;19.00;100.00;98815.22;5115544;27;20064;-70
2023/04/15 08:50:45;;;;;;;7.15;4.78;;;;;;;17.72;100.00;98753.44;5116310;27;20034;-73
2023/04/15 08:53:11;;;;;;;12.68;6.20;;;;;;;19.88;100.00;98805.31;5116189;27;20046;-73
2023/04/15 08:55:43;;;;;;;10.07;6.78;;;;;;;18.45;100.00;98879.78;5126069;27;20039;-73
2023/04/15 08:58:10;;;;;;;7.10;5.28;;;;;;;18.63;100.00;98826.03;5114023;28;20106;-72
2023/04/15 09:00:37;;;;;;;9.77;5.68;;;;;;;18.76;100.00;98870.47;5129827;27;21691;-74
2023/04/15 09:03:03;;;;;;;8.68;6.80;;;;;;;18.40;100.00;98902.44;5096354;28;20042;-74
2023/04/15 09:05:32;;;;;;;7.88;6.95;;;;;;;18.48;100.00;98928.44;5114010;28;20075;-73
2023/04/15 09:07:58;;;;;;;10.27;7.70;;;;;;;18.97;100.00;98917.72;5113984;28;20030;-73
2023/04/15 09:10:23;;;;;;;11.68;8.05;;;;;;;18.85;100.00;98936.72;5110795;27;20026;-74
2023/04/15 09:12:48;;;;;;;11.35;7.90;;;;;;;18.35;100.00;98921.75;5117072;27;20031;-76
2023/04/15 09:15:15;;;;;;;9.48;8.00;;;;;;;19.44;100.00;98921.66;5133407;27;20405;-74
2023/04/15 09:17:44;;;;;;;9.82;8.23;;;;;;;19.22;100.00;98919.13;5136817;27;20408;-74
2023/04/15 09:20:14;;;;;;;8.77;7.90;;;;;;;19.12;100.00;98949.16;5122922;27;20023;-72
2023/04/15 09:22:40;;;;;;;12.98;8.55;;;;;;;19.91;100.00;98975.34;5115188;27;20035;-72
2023/04/15 09:25:15;;;;;;;11.27;9.45;;;;;;;18.89;100.00;99047.13;5114703;27;20026;-72
2023/04/15 09:27:51;;;;;;;10.07;8.98;;;;;;;19.10;100.00;99003.41;5118902;27;20037;-73
2023/04/15 09:30:17;;;;;;;12.02;9.50;;;;;;;19.17;100.00;99002.00;5113490;27;20043;-74
2023/04/15 09:32:52;;;;;;;10.38;9.38;;;;;;;20.03;100.00;99038.84;5125632;27;20023;-73
2023/04/15 09:35:19;;;;;;;17.65;14.15;;;;;;;19.62;100.00;99051.69;5123484;27;20057;-75
2023/04/15 09:37:45;;;;;;;13.15;9.32;;;;;;;19.67;100.00;99016.84;5115381;27;20035;-75
2023/04/15 09:40:11;;;;;;;12.38;10.20;;;;;;;20.87;100.00;99061.91;5133207;27;20038;-75
2023/04/15 09:43:00;;;;;;;11.70;9.18;;;;;;;20.36;100.00;99107.59;5133460;27;20122;-75
2023/04/15 09:45:26;;;;;;;10.30;9.10;;;;;;;20.34;100.00;99092.19;5132046;27;20088;-74
2023/04/15 09:47:52;;;;;;;13.55;10.82;;;;;;;20.07;100.00;99174.44;5132961;27;20035;-71
2023/04/15 09:50:19;;;;;;;10.65;9.32;;;;;;;19.13;100.00;99186.13;5115346;27;20054;-73
2023/04/15 09:52:45;;;;;;;11.98;9.55;;;;;;;20.98;100.00;99112.66;5094212;28;20492;-74
2023/04/15 09:55:12;;;;;;;11.75;9.45;;;;;;;21.41;100.00;99090.00;5112238;28;20046;-74
2023/04/15 09:57:40;;;;;;;12.20;9.73;;;;;;;20.32;100.00;99085.53;5128235;27;20057;-73
2023/04/15 10:00:07;;;;;;;9.93;8.07;;;;;;;20.64;100.00;99174.91;5142066;27;20046;-73
2023/04/15 10:02:34;;;;;;;9.55;8.50;;;;;;;20.20;100.00;99146.75;5132486;27;20031;-75
2023/04/15 10:05:01;;;;;;;9.63;8.40;;;;;;;19.96;100.00;99164.16;5122517;27;20037;-73
2023/04/15 10:07:27;;;;;;;9.18;8.23;;;;;;;20.47;100.00;99201.31;5131271;27;20133;-73
2023/04/15 10:09:53;;;;;;;9.93;8.05;;;;;;;20.59;100.00;99215.81;5124551;27;20030;-74
2023/04/15 10:12:20;;;;;;;9.82;7.55;;;;;;;20.91;100.00;99210.59;5114300;27;20035;-74
2023/04/15 10:15:02;;;;;;;10.20;7.85;;;;;;;20.15;100.00;99190.13;5136424;27;20027;-72
2023/04/15 10:17:28;;;;;;;9.63;8.45;;;;;;;20.15;100.00;99192.72;5114761;27;20027;-73
2023/04/15 10:19:54;;;;;;;11.20;8.07;;;;;;;20.67;100.00;99218.59;5133295;27;20446;-73
2023/04/15 10:22:26;;;;;;;11.18;7.90;;;;;;;20.46;100.00;99240.19;5131452;27;20114;-73
2023/04/15 10:24:51;;;;;;;12.27;8.63;;;;;;;20.67;100.00;99215.19;5130876;27;20463;-72
2023/04/15 10:27:17;;;;;;;8.65;7.50;;;;;;;20.95;100.00;99255.09;5130808;27;20035;-73
2023/04/15 10:29:43;;;;;;;9.77;8.00;;;;;;;21.25;100.00;99283.63;5113294;27;20039;-73
2023/04/15 10:32:10;;;;;;;8.98;7.75;;;;;;;20.47;100.00;99302.03;5131435;27;20099;-73
2023/04/15 10:34:36;;;;;;;10.55;8.40;;;;;;;21.54;100.00;99285.44;5112516;27;20035;-74
2023/04/15 10:37:02;;;;;;;9.20;7.28;;;;;;;21.48;100.00;99282.53;5131978;27;20496;-74
2023/04/15 10:39:38;;;;;;;11.98;9.68;;;;;;;21.24;100.00;99310.41;5131971;27;20424;-75
2023/04/15 10:42:11;;;;;;;9.27;7.97;;;;;;;21.78;100.00;99307.59;5113934;27;20098;-73
2023/04/15 10:45:03;;;;;;;11.32;6.97;;;;;;;20.96;100.00;99357.53;5114124;28;20032;-74
2023/04/15 10:47:31;;;;;;;8.15;7.25;;;;;;;21.15;100.00;99394.75;5129173;27;20043;-73
2023/04/15 10:49:59;;;;;;;7.57;6.00;;;;;;;20.29;100.00;99442.91;5113612;27;20037;-74
2023/04/15 10:52:26;;;;;;;7.28;5.45;;;;;;;20.15;100.00;99303.72;5131973;27;20051;-73
2023/04/15 10:55:23;;;;;;;9.27;7.30;;;;;;;21.16;100.00;99372.28;5136690;27;20023;-72
2023/04/15 10:57:53;;;;;;;9.60;6.35;;;;;;;21.06;100.00;99386.91;5110659;27;20035;-72
2023/04/15 11:00:20;;;;;;;6.53;5.72;;;;;;;21.30;100.00;99409.03;5139626;27;20117;-74
2023/04/15 11:02:56;;;;;;;9.05;6.60;;;;;;;22.47;100.00;99391.41;5152907;27;20386;-72
2023/04/15 11:05:42;;;;;;;27.02;24.05;;;;;;;20.68;100.00;99339.06;5132056;27;20031;-73
2023/04/15 11:08:12;;;;;;;11.20;6.93;;;;;;;22.38;100.00;99295.38;5118606;28;20050;-73
2023/04/15 11:10:37;;;;;;;8.48;6.18;;;;;;;22.41;100.00;99292.53;5101898;28;20030;-74
2023/04/15 11:13:04;;;;;;;8.45;5.60;;;;;;;21.65;100.00;99243.09;5113255;27;20043;-75
2023/04/15 11:15:46;;;;;;;8.18;5.70;;;;;;;22.52;100.00;99272.63;5106697;28;20023;-75